Time;durP1;ratioP1;P1;durP2;ratioP2;P2;SDS_P1;SDS_P2;PMS_P1;PMS_P2;Temp;Humidity;BMP_temperature;BMP_pressure;BME280_temperature;BME280_humidity;BME280_pressure;Samples;Min_cycle;Max_cycle;Signal;HPM_P1;HPM_P2
2023/10/30 00:02:06;;;;;;;1.83;1.37;;;12.40;99.90;;;;;;5033237;28;20465;-63
2023/10/30 00:04:33;;;;;;;2.50;1.23;;;12.40;99.90;;;;;;5032957;28;20537;-63
2023/10/30 00:07:00;;;;;;;3.70;1.67;;;12.40;99.90;;;;;;5032930;28;20450;-63
2023/10/30 00:09:27;;;;;;;3.13;2.60;;;12.40;99.90;;;;;;5033060;28;20533;-63
2023/10/30 00:11:55;;;;;;;10.80;2.10;;;12.40;99.90;;;;;;5032795;28;20560;-63
2023/10/30 00:14:21;;;;;;;3.10;2.23;;;12.40;99.90;;;;;;5032907;28;20525;-63
2023/10/30 00:16:48;;;;;;;6.43;1.70;;;12.40;99.90;;;;;;5031910;28;20449;-63
2023/10/30 00:19:16;;;;;;;4.43;1.30;;;12.40;99.90;;;;;;5032450;28;20476;-63
2023/10/30 00:21:44;;;;;;;1.33;1.07;;;12.40;99.90;;;;;;5032034;28;20461;-64
2023/10/30 00:24:11;;;;;;;4.13;1.47;;;12.40;99.90;;;;;;5031609;28;20445;-64
2023/10/30 00:26:38;;;;;;;2.03;1.13;;;12.40;99.90;;;;;;5031863;28;20452;-64
2023/10/30 00:29:05;;;;;;;2.10;1.03;;;12.40;99.90;;;;;;5032589;28;20904;-63
2023/10/30 00:31:31;;;;;;;8.50;1.50;;;12.40;99.90;;;;;;5031904;28;20468;-63
2023/10/30 00:33:58;;;;;;;1.53;1.13;;;12.40;99.90;;;;;;5032813;28;20820;-64
2023/10/30 00:36:27;;;;;;;3.70;1.87;;;12.40;99.90;;;;;;5032448;28;20446;-64
2023/10/30 00:38:54;;;;;;;3.90;1.00;;;12.40;99.90;;;;;;5033056;28;20449;-63
2023/10/30 00:41:21;;;;;;;5.33;1.80;;;12.30;99.90;;;;;;5031987;28;20547;-63
2023/10/30 00:43:48;;;;;;;2.73;1.10;;;12.40;99.90;;;;;;5033870;28;20544;-64
2023/10/30 00:46:15;;;;;;;2.57;1.40;;;12.30;99.90;;;;;;5036343;28;20446;-64
2023/10/30 00:48:41;;;;;;;2.43;1.47;;;12.30;99.90;;;;;;5046536;28;20472;-63
2023/10/30 00:51:08;;;;;;;2.40;1.50;;;12.40;99.90;;;;;;5042397;28;20469;-63
2023/10/30 00:53:36;;;;;;;1.50;1.40;;;12.40;99.90;;;;;;5052317;28;20445;-64
2023/10/30 00:56:04;;;;;;;1.73;1.10;;;12.40;99.90;;;;;;5051782;28;20448;-63
2023/10/30 00:58:31;;;;;;;2.97;1.43;;;12.30;99.90;;;;;;5035132;28;20504;-63
2023/10/30 01:00:58;;;;;;;1.70;1.13;;;12.40;99.90;;;;;;5032421;28;20555;-63
2023/10/30 01:03:25;;;;;;;5.83;1.73;;;12.30;99.90;;;;;;5032418;28;20545;-63
2023/10/30 01:05:57;;;;;;;3.27;1.20;;;12.30;99.90;;;;;;5032079;28;20536;-63
2023/10/30 01:08:24;;;;;;;4.33;1.63;;;12.30;99.90;;;;;;5032490;28;20946;-64
2023/10/30 01:10:53;;;;;;;2.30;1.43;;;12.30;99.90;;;;;;5032460;28;20472;-64
2023/10/30 01:13:19;;;;;;;1.67;1.47;;;12.30;99.90;;;;;;5032417;28;20952;-63
2023/10/30 01:15:46;;;;;;;1.33;1.23;;;12.30;99.90;;;;;;5032369;28;20540;-64
2023/10/30 01:18:13;;;;;;;2.50;1.70;;;12.30;99.90;;;;;;5032336;28;20966;-62
2023/10/30 01:20:40;;;;;;;1.67;1.10;;;12.30;99.90;;;;;;5031402;28;20493;-63
2023/10/30 01:23:07;;;;;;;6.40;2.73;;;12.30;99.90;;;;;;5032264;28;20889;-63
2023/10/30 01:25:34;;;;;;;4.93;2.10;;;12.30;99.90;;;;;;5031502;28;20446;-63
2023/10/30 01:28:02;;;;;;;3.50;2.10;;;12.30;99.90;;;;;;5032087;28;20472;-63
2023/10/30 01:30:29;;;;;;;7.10;1.60;;;12.30;99.90;;;;;;5031550;28;20549;-63
2023/10/30 01:32:55;;;;;;;2.37;1.70;;;12.30;99.90;;;;;;5031914;28;20541;-63
2023/10/30 01:35:22;;;;;;;2.60;1.70;;;12.30;99.90;;;;;;5031568;28;20654;-63
2023/10/30 01:37:49;;;;;;;2.00;1.50;;;12.30;99.90;;;;;;5031960;28;20536;-63
2023/10/30 01:40:16;;;;;;;2.20;1.30;;;12.40;99.90;;;;;;5030045;28;20903;-64
2023/10/30 01:42:43;;;;;;;1.60;1.47;;;12.30;99.90;;;;;;5084215;22;20497;-63
2023/10/30 01:45:11;;;;;;;2.90;2.10;;;12.40;99.90;;;;;;5070983;28;20440;-63
2023/10/30 01:47:39;;;;;;;2.77;1.57;;;12.40;99.90;;;;;;5072025;28;20450;-63
2023/10/30 01:50:09;;;;;;;3.53;1.77;;;12.40;99.90;;;;;;5071744;28;20447;-63
2023/10/30 01:52:37;;;;;;;2.27;1.23;;;12.40;99.90;;;;;;5058260;28;20974;-63
2023/10/30 01:55:05;;;;;;;3.63;1.40;;;12.40;99.90;;;;;;5051502;28;20458;-63
2023/10/30 01:57:33;;;;;;;5.80;1.57;;;12.40;99.90;;;;;;5051683;28;20452;-62
2023/10/30 02:00:01;;;;;;;3.23;1.50;;;12.40;99.90;;;;;;5051753;28;20447;-63
2023/10/30 02:02:32;;;;;;;2.50;1.53;;;12.40;99.90;;;;;;5051778;28;20548;-63
2023/10/30 02:04:59;;;;;;;1.60;1.33;;;12.40;99.90;;;;;;5050937;28;20441;-63
2023/10/30 02:07:26;;;;;;;2.27;1.70;;;12.40;99.90;;;;;;5051919;28;20449;-63
2023/10/30 02:09:54;;;;;;;1.83;1.23;;;12.40;99.90;;;;;;5051629;28;20543;-63
2023/10/30 02:12:20;;;;;;;1.53;1.43;;;12.40;99.90;;;;;;5051475;28;20471;-62
2023/10/30 02:14:47;;;;;;;4.67;1.50;;;12.40;99.90;;;;;;5051358;28;20994;-63
2023/10/30 02:17:14;;;;;;;2.60;1.20;;;12.40;99.90;;;;;;5051264;28;20455;-63
2023/10/30 02:19:42;;;;;;;3.23;1.43;;;12.40;99.90;;;;;;5051319;28;20455;-63
2023/10/30 02:22:09;;;;;;;3.37;1.40;;;12.40;99.90;;;;;;5051113;28;21002;-63
2023/10/30 02:24:36;;;;;;;2.50;1.20;;;12.40;99.90;;;;;;5059453;28;20528;-63
2023/10/30 02:27:04;;;;;;;3.47;1.50;;;12.40;99.90;;;;;;5068256;28;20810;-63
2023/10/30 02:29:31;;;;;;;3.37;1.83;;;12.40;99.90;;;;;;5071445;28;20466;-63
2023/10/30 02:31:58;;;;;;;3.23;1.20;;;12.40;99.90;;;;;;5071318;28;20474;-63
2023/10/30 02:34:24;;;;;;;2.30;1.27;;;12.40;99.90;;;;;;5071320;28;20826;-63
2023/10/30 02:36:53;;;;;;;2.30;1.90;;;12.40;99.90;;;;;;5071082;28;20452;-63
2023/10/30 02:39:19;;;;;;;9.37;1.47;;;12.40;99.90;;;;;;5070980;28;20950;-63
2023/10/30 02:41:46;;;;;;;1.73;1.63;;;12.40;99.90;;;;;;5071097;28;20491;-63
2023/10/30 02:44:15;;;;;;;5.03;1.30;;;12.40;99.90;;;;;;5070624;28;20444;-63
2023/10/30 02:46:41;;;;;;;1.23;1.13;;;12.40;99.90;;;;;;5070869;28;20819;-63
2023/10/30 02:49:08;;;;;;;2.53;1.53;;;12.40;99.90;;;;;;5071191;28;20451;-63
2023/10/30 02:51:35;;;;;;;4.43;1.40;;;12.40;99.90;;;;;;5071044;28;20464;-63
2023/10/30 02:54:02;;;;;;;3.50;1.50;;;12.30;99.90;;;;;;5070783;28;20452;-62
2023/10/30 02:56:29;;;;;;;3.53;2.67;;;12.30;99.90;;;;;;5070929;28;20797;-63
2023/10/30 02:58:56;;;;;;;0.90;0.87;;;12.30;99.90;;;;;;5071085;28;20451;-63
2023/10/30 03:01:24;;;;;;;1.60;1.23;;;12.30;99.90;;;;;;5071006;28;21049;-63
2023/10/30 03:03:51;;;;;;;1.43;1.30;;;12.30;99.90;;;;;;5070930;28;20536;-63
2023/10/30 03:06:18;;;;;;;1.47;1.20;;;12.30;99.90;;;;;;5070534;28;20475;-62
2023/10/30 03:08:45;;;;;;;2.10;1.17;;;12.20;99.90;;;;;;5070884;28;20452;-63
2023/10/30 03:11:11;;;;;;;2.40;1.60;;;12.20;99.90;;;;;;5070764;28;20460;-63
2023/10/30 03:13:38;;;;;;;3.57;1.80;;;12.20;99.90;;;;;;5070693;28;20453;-63
2023/10/30 03:16:06;;;;;;;3.43;1.43;;;12.20;99.90;;;;;;5070221;28;20535;-63
2023/10/30 03:18:35;;;;;;;5.27;1.97;;;12.20;99.90;;;;;;5074224;28;20448;-62
2023/10/30 03:21:04;;;;;;;2.30;1.30;;;12.20;99.90;;;;;;5059010;28;21024;-62
2023/10/30 03:23:30;;;;;;;2.50;1.03;;;12.20;99.90;;;;;;5054362;28;20993;-63
2023/10/30 03:25:57;;;;;;;4.90;1.77;;;12.20;99.90;;;;;;5054270;28;21015;-62
2023/10/30 03:28:24;;;;;;;1.97;1.73;;;12.10;99.90;;;;;;5054631;28;20539;-62
2023/10/30 03:30:51;;;;;;;3.80;1.63;;;12.20;99.90;;;;;;5054397;28;20437;-62
2023/10/30 03:33:20;;;;;;;2.70;1.63;;;12.20;99.90;;;;;;5054390;28;20475;-63
2023/10/30 03:35:48;;;;;;;7.40;3.20;;;12.20;99.90;;;;;;5060718;28;20451;-63
2023/10/30 03:38:16;;;;;;;2.00;1.27;;;12.10;99.90;;;;;;5066297;28;20541;-62
2023/10/30 03:40:42;;;;;;;2.03;1.43;;;12.20;99.90;;;;;;5074360;28;20487;-63
2023/10/30 03:43:09;;;;;;;7.00;2.33;;;12.20;99.90;;;;;;5074215;28;20471;-63
2023/10/30 03:45:36;;;;;;;1.90;1.67;;;12.10;99.90;;;;;;5074302;28;20440;-62
2023/10/30 03:48:03;;;;;;;2.50;1.40;;;12.10;99.90;;;;;;5074294;28;20466;-63
2023/10/30 03:50:30;;;;;;;6.57;1.87;;;12.10;99.90;;;;;;5074391;28;21009;-62
2023/10/30 03:52:58;;;;;;;1.80;1.70;;;12.10;99.90;;;;;;5074302;28;20470;-62
2023/10/30 03:55:25;;;;;;;2.10;1.30;;;12.10;99.90;;;;;;5073784;28;20448;-62
2023/10/30 03:57:52;;;;;;;4.23;1.30;;;12.10;99.90;;;;;;5073826;28;20454;-63
2023/10/30 04:00:19;;;;;;;2.50;1.80;;;12.10;99.90;;;;;;5074096;28;20454;-63
2023/10/30 04:02:45;;;;;;;5.70;1.63;;;12.10;99.90;;;;;;5073683;28;20491;-62
2023/10/30 04:05:13;;;;;;;4.20;1.33;;;12.10;99.90;;;;;;5074001;28;20535;-63
2023/10/30 04:07:40;;;;;;;3.53;1.27;;;12.10;99.90;;;;;;5074318;28;20454;-62
2023/10/30 04:10:09;;;;;;;3.83;1.50;;;12.10;99.90;;;;;;5074342;28;20539;-62
2023/10/30 04:12:36;;;;;;;4.13;1.30;;;12.10;99.90;;;;;;5073857;28;20839;-63
2023/10/30 04:15:03;;;;;;;1.33;0.90;;;12.10;99.90;;;;;;5073709;28;20474;-63
2023/10/30 04:17:30;;;;;;;4.23;1.70;;;12.10;99.90;;;;;;5074106;28;20454;-63
2023/10/30 04:19:57;;;;;;;2.57;1.40;;;12.10;99.90;;;;;;5073872;28;20440;-63
2023/10/30 04:22:23;;;;;;;2.10;1.43;;;12.10;99.90;;;;;;5072766;28;20569;-62
2023/10/30 04:24:50;;;;;;;3.47;1.20;;;12.00;99.90;;;;;;5073635;28;20897;-63
2023/10/30 04:27:18;;;;;;;5.43;1.60;;;12.00;99.90;;;;;;5073466;28;20531;-62
2023/10/30 04:29:45;;;;;;;1.53;1.37;;;12.00;99.90;;;;;;5073550;28;20443;-63
2023/10/30 04:32:12;;;;;;;3.17;1.20;;;12.00;99.90;;;;;;5073563;28;20459;-62
2023/10/30 04:34:39;;;;;;;3.90;1.63;;;12.00;99.90;;;;;;5073466;28;20831;-62
2023/10/30 04:37:06;;;;;;;1.90;1.47;;;12.00;99.90;;;;;;5073311;28;20454;-62
2023/10/30 04:39:33;;;;;;;3.30;1.40;;;12.00;99.90;;;;;;5073028;28;20447;-63
2023/10/30 04:41:59;;;;;;;2.80;1.50;;;12.00;99.90;;;;;;5072867;28;21051;-62
2023/10/30 04:44:28;;;;;;;2.20;1.80;;;12.00;99.90;;;;;;5073208;28;20447;-62
2023/10/30 04:46:54;;;;;;;2.10;1.40;;;12.00;99.90;;;;;;5073225;28;20444;-62
2023/10/30 04:49:21;;;;;;;5.40;1.47;;;12.00;99.90;;;;;;5073149;28;20455;-61
2023/10/30 04:51:48;;;;;;;2.47;1.83;;;12.00;99.90;;;;;;5073256;28;20559;-62
2023/10/30 04:54:15;;;;;;;2.10;1.37;;;12.00;99.90;;;;;;5073068;28;20456;-62
2023/10/30 04:56:42;;;;;;;2.00;1.30;;;12.00;99.90;;;;;;5072797;28;20448;-63
2023/10/30 04:59:09;;;;;;;2.93;1.53;;;12.00;99.90;;;;;;5072978;28;20869;-62
2023/10/30 05:01:37;;;;;;;2.80;1.40;;;12.00;99.90;;;;;;5072983;28;20576;-62
2023/10/30 05:04:05;;;;;;;4.30;1.00;;;12.00;99.90;;;;;;5072915;28;20561;-62
2023/10/30 05:06:32;;;;;;;1.87;1.17;;;12.00;99.90;;;;;;5072424;28;20440;-62
2023/10/30 05:08:59;;;;;;;4.07;1.40;;;12.00;99.90;;;;;;5072834;28;20447;-62
2023/10/30 05:11:26;;;;;;;3.40;1.70;;;11.90;99.90;;;;;;5072466;28;20999;-62
2023/10/30 05:13:52;;;;;;;5.30;1.80;;;11.90;99.90;;;;;;5072290;28;20462;-63
2023/10/30 05:16:19;;;;;;;2.93;1.20;;;11.90;99.90;;;;;;5072306;28;20446;-62
2023/10/30 05:18:47;;;;;;;4.37;1.70;;;11.90;99.90;;;;;;5072412;28;20448;-62
2023/10/30 05:21:14;;;;;;;2.57;1.40;;;11.90;99.90;;;;;;5072596;28;21111;-62
2023/10/30 05:23:41;;;;;;;3.03;1.20;;;11.90;99.90;;;;;;5072630;28;20443;-62
2023/10/30 05:26:08;;;;;;;4.20;2.60;;;11.90;99.90;;;;;;5072068;28;20448;-63
2023/10/30 05:28:34;;;;;;;1.13;1.00;;;11.90;99.90;;;;;;5072536;28;20486;-62
2023/10/30 05:31:06;;;;;;;3.57;1.60;;;11.90;99.90;;;;;;5072249;28;20538;-62
2023/10/30 05:33:34;;;;;;;2.87;1.70;;;11.90;99.90;;;;;;5072349;28;20448;-62
2023/10/30 05:36:02;;;;;;;2.73;1.33;;;11.90;99.90;;;;;;5071620;28;20451;-62
2023/10/30 05:38:29;;;;;;;2.17;1.70;;;11.90;99.90;;;;;;5072012;28;20451;-62
2023/10/30 05:40:56;;;;;;;1.70;1.20;;;11.90;99.90;;;;;;5070871;28;20470;-62
2023/10/30 05:43:22;;;;;;;5.83;1.80;;;11.80;99.90;;;;;;5071172;28;20444;-62
2023/10/30 05:45:49;;;;;;;6.77;3.17;;;11.80;99.90;;;;;;5071533;28;20448;-62
2023/10/30 05:48:16;;;;;;;1.60;1.50;;;11.80;99.90;;;;;;5071870;28;20444;-62
2023/10/30 05:50:43;;;;;;;1.90;0.83;;;11.80;99.90;;;;;;5071874;28;20535;-62
2023/10/30 05:53:11;;;;;;;4.10;1.43;;;11.80;99.90;;;;;;5071707;28;20466;-62
2023/10/30 05:55:38;;;;;;;2.03;1.20;;;11.80;99.90;;;;;;5062480;28;20454;-62
2023/10/30 05:58:05;;;;;;;1.40;1.27;;;11.80;99.90;;;;;;5059570;28;20950;-62
2023/10/30 06:00:32;;;;;;;2.00;1.90;;;11.80;99.90;;;;;;5060185;28;20453;-62
2023/10/30 06:02:59;;;;;;;4.00;1.80;;;11.80;99.90;;;;;;5056508;28;20489;-62
2023/10/30 06:05:26;;;;;;;2.23;1.40;;;11.80;99.90;;;;;;5067985;28;20444;-62
2023/10/30 06:07:54;;;;;;;1.50;1.40;;;11.80;99.90;;;;;;5063319;28;20450;-62
2023/10/30 06:10:23;;;;;;;3.07;1.70;;;11.80;99.90;;;;;;5071921;28;20505;-62
2023/10/30 06:12:50;;;;;;;1.57;1.47;;;11.80;99.90;;;;;;5071897;28;20467;-62
2023/10/30 06:15:17;;;;;;;3.30;1.60;;;11.80;99.90;;;;;;5071558;28;20447;-62
2023/10/30 06:17:44;;;;;;;2.23;1.40;;;11.80;99.90;;;;;;5071986;28;20444;-62
2023/10/30 06:20:12;;;;;;;2.40;1.90;;;11.80;99.90;;;;;;5071630;28;20448;-62
2023/10/30 06:22:39;;;;;;;2.70;2.50;;;11.80;99.90;;;;;;5064054;28;20492;-63
2023/10/30 06:25:06;;;;;;;4.57;2.50;;;11.80;99.90;;;;;;5067769;28;20451;-62
2023/10/30 06:27:35;;;;;;;3.53;1.90;;;11.80;99.90;;;;;;5071503;28;20454;-62
2023/10/30 06:30:02;;;;;;;5.17;1.93;;;11.80;99.90;;;;;;5071261;28;20470;-63
2023/10/30 06:32:29;;;;;;;3.03;1.80;;;11.80;99.90;;;;;;5071050;28;21001;-62
2023/10/30 06:34:56;;;;;;;4.20;2.13;;;11.80;99.90;;;;;;5070937;28;20475;-62
2023/10/30 06:37:22;;;;;;;3.57;2.10;;;11.80;99.90;;;;;;5071179;28;20451;-62
2023/10/30 06:39:49;;;;;;;2.00;1.80;;;11.70;99.90;;;;;;5071475;28;20452;-62
2023/10/30 06:42:16;;;;;;;4.73;2.77;;;11.70;99.90;;;;;;5071093;28;20862;-62
2023/10/30 06:44:44;;;;;;;3.47;2.20;;;11.70;99.90;;;;;;5071197;28;20450;-63
2023/10/30 06:47:11;;;;;;;4.50;2.47;;;11.70;99.90;;;;;;5070990;28;20538;-62
2023/10/30 06:49:38;;;;;;;3.50;2.13;;;11.80;99.90;;;;;;5071353;28;20443;-63
2023/10/30 06:52:05;;;;;;;2.53;2.33;;;11.80;99.90;;;;;;5074490;28;20470;-63
2023/10/30 06:54:32;;;;;;;2.50;2.03;;;11.80;99.90;;;;;;5075292;28;20961;-63
2023/10/30 06:56:58;;;;;;;2.30;2.20;;;11.80;99.90;;;;;;5065728;28;20531;-63
2023/10/30 06:59:24;;;;;;;5.13;2.40;;;11.80;99.90;;;;;;5074416;28;20440;-63
2023/10/30 07:01:53;;;;;;;5.73;2.40;;;11.80;99.90;;;;;;5075113;28;21073;-62
2023/10/30 07:04:21;;;;;;;2.20;1.93;;;11.80;99.90;;;;;;5074757;28;20538;-63
2023/10/30 07:06:50;;;;;;;3.27;1.87;;;11.80;99.90;;;;;;5075287;28;20531;-63
2023/10/30 07:09:18;;;;;;;2.60;1.70;;;11.80;99.90;;;;;;5075401;28;20890;-63
2023/10/30 07:11:45;;;;;;;4.33;2.80;;;11.80;99.90;;;;;;5075165;28;20471;-63
2023/10/30 07:14:12;;;;;;;9.20;5.17;;;11.80;99.90;;;;;;5075050;28;20538;-63
2023/10/30 07:16:38;;;;;;;5.07;4.63;;;11.80;99.90;;;;;;5074631;28;20450;-62
2023/10/30 07:19:07;;;;;;;2.83;2.63;;;11.80;99.90;;;;;;5075057;28;20814;-63
2023/10/30 07:21:33;;;;;;;2.90;2.40;;;11.80;99.90;;;;;;5073798;28;20464;-63
2023/10/30 07:24:00;;;;;;;4.60;3.70;;;11.80;99.90;;;;;;5073931;28;20455;-63
2023/10/30 07:26:27;;;;;;;5.70;3.20;;;11.90;99.90;;;;;;5074004;28;20447;-63
2023/10/30 07:28:55;;;;;;;2.57;2.37;;;11.90;99.90;;;;;;5074281;28;20961;-63
2023/10/30 07:31:21;;;;;;;1.80;1.70;;;12.00;99.90;;;;;;5074223;28;20503;-63
2023/10/30 07:33:50;;;;;;;3.67;2.13;;;12.00;99.90;;;;;;5074246;28;20530;-63
2023/10/30 07:36:18;;;;;;;4.50;2.00;;;12.00;99.90;;;;;;5074181;28;20443;-63
2023/10/30 07:38:45;;;;;;;2.70;2.20;;;12.00;99.90;;;;;;5074258;28;20526;-62
2023/10/30 07:41:12;;;;;;;4.97;3.33;;;12.10;99.90;;;;;;5074235;28;20847;-63
2023/10/30 07:43:39;;;;;;;3.80;2.00;;;12.10;99.90;;;;;;5074192;28;20594;-62
2023/10/30 07:48:33;;;;;;;3.73;2.87;;;12.20;99.90;;;;;;5030623;28;20470;-63
2023/10/30 07:51:03;;;;;;;4.40;3.20;;;12.30;99.90;;;;;;5033918;28;20454;-63
2023/10/30 07:53:32;;;;;;;4.27;2.33;;;12.30;99.90;;;;;;5034102;28;20437;-63
2023/10/30 07:55:59;;;;;;;6.30;2.53;;;12.30;99.90;;;;;;5033295;28;20438;-63
2023/10/30 07:58:26;;;;;;;3.20;2.83;;;12.40;99.90;;;;;;5033668;28;20462;-62
2023/10/30 08:00:53;;;;;;;3.27;2.67;;;12.40;99.90;;;;;;5033683;28;20804;-62
2023/10/30 08:03:20;;;;;;;5.37;4.03;;;12.40;99.90;;;;;;5032133;28;20492;-63
2023/10/30 08:05:47;;;;;;;2.73;2.50;;;12.40;99.90;;;;;;5032475;28;20468;-63
2023/10/30 08:08:16;;;;;;;3.97;2.27;;;12.40;99.90;;;;;;5032265;28;20473;-62
2023/10/30 08:10:45;;;;;;;5.57;2.20;;;12.50;99.90;;;;;;5033660;28;20881;-62
2023/10/30 08:13:12;;;;;;;2.77;1.70;;;12.50;99.90;;;;;;5030388;28;20458;-63
2023/10/30 08:15:39;;;;;;;3.40;2.40;;;12.50;99.90;;;;;;5033553;28;21003;-62
2023/10/30 08:18:06;;;;;;;2.73;1.90;;;12.50;99.90;;;;;;5032548;28;20473;-63
2023/10/30 08:20:33;;;;;;;5.47;2.73;;;12.50;99.90;;;;;;5025143;28;20533;-63
2023/10/30 08:22:59;;;;;;;3.70;1.77;;;12.40;99.90;;;;;;5032663;28;20486;-62
2023/10/30 08:25:27;;;;;;;3.63;2.20;;;12.40;99.90;;;;;;5032800;28;20462;-63
2023/10/30 08:27:56;;;;;;;1.80;1.60;;;12.40;99.90;;;;;;5032038;28;20478;-63
2023/10/30 08:30:24;;;;;;;5.60;1.90;;;12.40;99.90;;;;;;5033261;28;20460;-63
2023/10/30 08:32:51;;;;;;;5.63;1.63;;;12.40;99.90;;;;;;5030722;28;21016;-63
2023/10/30 08:35:18;;;;;;;4.60;1.80;;;12.40;99.90;;;;;;5032396;28;20445;-62
2023/10/30 08:37:45;;;;;;;4.23;1.80;;;12.40;99.90;;;;;;5032093;28;20846;-63
2023/10/30 08:40:12;;;;;;;3.30;1.57;;;12.40;99.90;;;;;;5033203;28;20442;-62
2023/10/30 08:42:39;;;;;;;2.40;1.50;;;12.40;99.90;;;;;;5030605;28;21059;-62
2023/10/30 08:45:09;;;;;;;2.30;2.20;;;12.40;99.90;;;;;;5028885;28;20889;-61
2023/10/30 08:47:36;;;;;;;2.13;2.00;;;12.40;99.90;;;;;;5023097;28;21190;-63
2023/10/30 08:50:03;;;;;;;1.40;1.30;;;12.40;99.90;;;;;;5023877;28;20446;-63
2023/10/30 08:52:30;;;;;;;3.60;1.80;;;12.40;99.90;;;;;;5020567;28;20443;-63
2023/10/30 08:54:56;;;;;;;2.43;2.30;;;12.40;99.90;;;;;;5024100;28;20470;-60
2023/10/30 08:57:24;;;;;;;1.77;1.60;;;12.40;99.90;;;;;;5025328;28;20666;-62
2023/10/30 08:59:51;;;;;;;2.30;1.90;;;12.40;99.90;;;;;;5032090;28;20515;-63
2023/10/30 09:02:19;;;;;;;5.20;1.67;;;12.50;99.90;;;;;;5029760;28;21065;-61
2023/10/30 09:04:46;;;;;;;3.13;1.63;;;12.50;99.90;;;;;;5030698;28;20807;-62
2023/10/30 09:07:13;;;;;;;6.37;2.30;;;12.50;99.90;;;;;;5031762;28;20561;-63
2023/10/30 09:09:40;;;;;;;3.63;2.10;;;12.50;99.90;;;;;;5032017;28;20525;-63
2023/10/30 09:12:07;;;;;;;5.20;3.23;;;12.50;99.90;;;;;;5031114;28;20454;-63
2023/10/30 09:14:34;;;;;;;4.77;3.00;;;12.60;99.90;;;;;;5022943;28;20438;-63
2023/10/30 09:17:01;;;;;;;3.63;2.10;;;12.60;99.90;;;;;;5030964;28;20480;-63
2023/10/30 09:19:29;;;;;;;5.40;1.87;;;12.60;99.90;;;;;;5031987;28;20516;-63
2023/10/30 09:21:56;;;;;;;4.10;2.10;;;12.60;99.90;;;;;;5030455;28;20458;-63
2023/10/30 09:24:23;;;;;;;4.17;2.07;;;12.60;99.90;;;;;;5031593;28;20489;-63
2023/10/30 09:26:50;;;;;;;3.70;1.90;;;12.70;99.90;;;;;;5031965;28;20476;-63
2023/10/30 09:29:17;;;;;;;3.53;1.90;;;12.70;99.90;;;;;;5031815;28;20448;-63
2023/10/30 09:31:44;;;;;;;7.77;2.20;;;12.80;99.90;;;;;;5032285;28;20529;-64
2023/10/30 09:34:11;;;;;;;1.80;1.43;;;12.80;99.90;;;;;;5031071;28;20449;-62
2023/10/30 09:36:39;;;;;;;2.00;1.80;;;12.90;99.90;;;;;;5017910;28;20825;-63
2023/10/30 09:39:07;;;;;;;3.27;2.00;;;12.90;99.90;;;;;;5011671;28;20541;-62
2023/10/30 09:41:40;;;;;;;2.80;1.70;;;13.00;99.90;;;;;;5015298;28;20481;-63
2023/10/30 09:44:10;;;;;;;1.80;1.10;;;13.10;99.90;;;;;;5030701;28;20485;-62
2023/10/30 09:46:39;;;;;;;1.93;1.40;;;13.20;99.90;;;;;;5028883;28;20541;-63
2023/10/30 09:49:08;;;;;;;2.07;1.10;;;13.20;99.90;;;;;;5028034;28;20453;-62
2023/10/30 09:51:37;;;;;;;1.70;1.60;;;13.40;99.90;;;;;;5029749;28;20477;-62
2023/10/30 09:54:06;;;;;;;2.97;1.60;;;13.50;99.90;;;;;;5029619;28;20451;-63
2023/10/30 09:56:34;;;;;;;4.40;2.13;;;13.60;99.90;;;;;;5028862;28;20579;-62
2023/10/30 09:59:01;;;;;;;4.97;3.03;;;13.80;99.90;;;;;;5029869;28;20445;-62
2023/10/30 10:01:28;;;;;;;4.30;1.60;;;13.80;99.90;;;;;;5029998;28;20458;-63
2023/10/30 10:03:56;;;;;;;3.60;2.27;;;13.90;99.90;;;;;;5029371;28;20485;-63
2023/10/30 10:06:23;;;;;;;1.93;1.77;;;14.00;99.90;;;;;;5028966;28;20460;-63
2023/10/30 10:08:50;;;;;;;2.23;2.07;;;14.00;99.90;;;;;;5028823;28;20457;-63
2023/10/30 10:11:22;;;;;;;3.20;3.00;;;14.10;99.90;;;;;;5029241;28;20461;-63
2023/10/30 10:13:50;;;;;;;1.60;1.50;;;14.10;99.90;;;;;;5030186;28;20448;-64
2023/10/30 10:16:17;;;;;;;2.97;1.53;;;14.20;99.90;;;;;;5029616;28;20465;-62
2023/10/30 10:18:44;;;;;;;6.30;2.60;;;14.20;99.90;;;;;;5030711;28;20450;-64
2023/10/30 10:21:12;;;;;;;3.20;1.40;;;14.30;99.90;;;;;;5030742;28;20571;-64
2023/10/30 10:23:39;;;;;;;1.50;1.30;;;14.40;99.90;;;;;;5030424;28;20584;-64
2023/10/30 10:26:13;;;;;;;6.07;1.50;;;14.50;99.90;;;;;;5029324;28;20458;-63
2023/10/30 10:28:42;;;;;;;4.00;1.37;;;14.50;99.90;;;;;;5010677;28;20967;-63
2023/10/30 10:31:09;;;;;;;1.47;1.37;;;14.60;99.90;;;;;;5026738;28;20449;-64
2023/10/30 10:33:37;;;;;;;9.27;2.73;;;14.70;99.90;;;;;;5030032;28;20473;-64
2023/10/30 10:36:06;;;;;;;3.90;1.63;;;14.70;99.90;;;;;;5029854;28;20441;-64
2023/10/30 10:38:33;;;;;;;2.90;1.60;;;14.80;99.90;;;;;;5030293;28;20449;-64
2023/10/30 10:41:00;;;;;;;1.20;1.20;;;14.90;99.90;;;;;;5030066;28;20446;-64
2023/10/30 10:43:29;;;;;;;1.80;1.70;;;15.00;99.90;;;;;;5029835;28;20591;-64
2023/10/30 10:45:59;;;;;;;1.90;1.57;;;15.00;99.90;;;;;;5029899;28;20863;-64
2023/10/30 10:48:27;;;;;;;1.77;1.60;;;15.10;99.90;;;;;;5029798;28;20482;-65
2023/10/30 10:50:55;;;;;;;1.27;1.17;;;15.20;99.90;;;;;;5029830;28;20446;-65
2023/10/30 10:53:24;;;;;;;1.70;1.30;;;15.30;99.90;;;;;;5029897;28;20449;-65
2023/10/30 10:55:51;;;;;;;1.00;0.80;;;15.40;99.90;;;;;;5029290;28;20449;-64
2023/10/30 10:58:21;;;;;;;2.93;1.13;;;15.50;99.90;;;;;;5027906;28;20552;-64
2023/10/30 11:00:50;;;;;;;2.63;1.03;;;15.60;99.90;;;;;;5029640;28;20441;-64
2023/10/30 11:03:20;;;;;;;1.90;1.30;;;15.70;99.90;;;;;;5029698;28;20564;-64
2023/10/30 11:05:49;;;;;;;2.17;1.00;;;15.70;99.90;;;;;;5028854;28;20454;-64
2023/10/30 11:08:33;;;;;;;1.73;1.20;;;15.70;99.90;;;;;;5029350;28;20462;-64
2023/10/30 11:11:08;;;;;;;1.57;1.47;;;15.80;99.90;;;;;;5029575;28;20452;-64
2023/10/30 11:13:48;;;;;;;3.50;1.17;;;15.90;99.90;;;;;;5029520;28;20524;-64
2023/10/30 11:16:20;;;;;;;1.40;1.10;;;16.00;99.90;;;;;;5028860;28;20446;-64
2023/10/30 11:18:51;;;;;;;8.53;1.50;;;16.00;99.90;;;;;;5029112;28;20446;-64
2023/10/30 11:21:19;;;;;;;1.67;0.90;;;16.10;99.90;;;;;;5029597;28;20525;-64
2023/10/30 11:23:54;;;;;;;1.63;1.10;;;16.20;99.90;;;;;;5029938;28;20535;-64
2023/10/30 11:26:43;;;;;;;2.13;1.30;;;16.40;99.90;;;;;;5028492;28;20449;-64
2023/10/30 11:29:12;;;;;;;2.00;0.93;;;16.50;99.90;;;;;;5028925;28;20450;-65
2023/10/30 11:31:56;;;;;;;1.70;0.60;;;16.70;99.90;;;;;;5028781;28;20442;-64
2023/10/30 11:34:32;;;;;;;1.20;1.10;;;16.80;99.90;;;;;;5029021;28;20450;-65
2023/10/30 11:37:02;;;;;;;3.10;1.00;;;16.90;99.90;;;;;;5029196;28;20473;-65
2023/10/30 11:39:34;;;;;;;1.17;1.07;;;17.00;99.90;;;;;;5032472;28;20460;-65
2023/10/30 11:42:01;;;;;;;2.20;1.20;;;17.00;99.90;;;;;;5033294;28;20446;-65
2023/10/30 11:44:30;;;;;;;0.90;0.90;;;17.00;99.90;;;;;;5033064;28;20480;-65
2023/10/30 11:46:57;;;;;;;1.07;1.07;;;17.10;99.90;;;;;;5032561;28;20477;-64
2023/10/30 11:49:32;;;;;;;0.67;0.67;;;17.10;99.90;;;;;;5032951;28;20448;-65
2023/10/30 11:51:59;;;;;;;0.90;0.70;;;17.20;99.90;;;;;;5032750;28;20449;-64
2023/10/30 11:54:32;;;;;;;1.70;0.90;;;17.20;99.90;;;;;;5033028;28;20524;-64
2023/10/30 11:57:00;;;;;;;0.77;0.77;;;17.20;99.90;;;;;;5032918;28;20469;-65
2023/10/30 11:59:27;;;;;;;4.17;1.47;;;17.20;99.90;;;;;;5017049;28;20480;-65
2023/10/30 12:01:56;;;;;;;3.73;0.90;;;17.20;99.90;;;;;;5033079;28;20525;-65
2023/10/30 12:04:24;;;;;;;0.53;0.53;;;17.20;99.90;;;;;;5032847;28;20481;-65
2023/10/30 12:06:52;;;;;;;2.43;0.80;;;17.20;99.90;;;;;;5032532;28;21059;-65
2023/10/30 12:09:21;;;;;;;2.10;1.00;;;17.20;99.90;;;;;;5032192;28;20457;-65
2023/10/30 12:11:49;;;;;;;0.90;0.70;;;17.20;99.90;;;;;;5033000;28;20896;-64
2023/10/30 12:14:18;;;;;;;0.60;0.60;;;17.20;99.90;;;;;;5032851;28;20542;-65
2023/10/30 12:16:48;;;;;;;0.77;0.77;;;17.20;99.90;;;;;;5032590;28;20468;-65
2023/10/30 12:19:15;;;;;;;0.90;0.70;;;17.10;99.90;;;;;;5032786;28;20438;-65
2023/10/30 12:21:43;;;;;;;0.83;0.70;;;17.00;99.90;;;;;;5032776;28;20434;-65
2023/10/30 12:24:11;;;;;;;0.87;0.60;;;17.00;99.90;;;;;;5032553;28;20491;-65
2023/10/30 12:26:40;;;;;;;0.90;0.57;;;17.00;99.90;;;;;;5032195;28;20544;-65
2023/10/30 12:29:07;;;;;;;3.23;1.03;;;16.90;99.90;;;;;;5032265;28;20549;-65
2023/10/30 12:31:35;;;;;;;2.60;0.90;;;16.90;99.90;;;;;;5032383;28;20521;-65
2023/10/30 12:34:14;;;;;;;1.47;0.80;;;16.80;99.90;;;;;;5030878;28;20820;-64
2023/10/30 12:36:41;;;;;;;1.63;0.80;;;16.80;99.90;;;;;;5025990;28;20539;-64
2023/10/30 12:39:17;;;;;;;2.17;0.87;;;16.70;99.90;;;;;;5031996;28;20525;-64
2023/10/30 12:41:44;;;;;;;1.17;0.87;;;16.60;99.90;;;;;;5032216;28;21121;-64
2023/10/30 12:44:11;;;;;;;0.90;0.80;;;16.60;99.90;;;;;;5032157;28;20493;-64
2023/10/30 12:46:38;;;;;;;5.37;0.97;;;16.50;99.90;;;;;;5031701;28;20498;-64
2023/10/30 12:49:05;;;;;;;1.90;0.87;;;16.40;99.90;;;;;;5032148;28;20481;-64
2023/10/30 12:51:36;;;;;;;2.73;1.57;;;16.40;99.90;;;;;;5032388;28;20448;-64
2023/10/30 12:54:03;;;;;;;1.60;0.70;;;16.40;99.90;;;;;;5032157;28;20897;-64